Time;durP1;ratioP1;P1;durP2;ratioP2;P2;SDS_P1;SDS_P2;PMS_P1;PMS_P2;Temp;Humidity;BMP_temperature;BMP_pressure;BME280_temperature;BME280_humidity;BME280_pressure;Samples;Min_cycle;Max_cycle;Signal;HPM_P1;HPM_P2
2022/02/25 00:02:11;;;;;;;6.38;1.08;;;;;;;;;;5056854;28;20487;-62
2022/02/25 00:04:37;;;;;;;10.32;1.33;;;;;;;;;;5067453;28;20035;-62
2022/02/25 00:07:03;;;;;;;7.22;1.40;;;;;;;;;;5063460;28;20297;-64
2022/02/25 00:09:28;;;;;;;11.32;2.03;;;;;;;;;;5066372;28;20044;-62
2022/02/25 00:11:54;;;;;;;8.15;1.73;;;;;;;;;;5053979;28;20045;-59
2022/02/25 00:14:20;;;;;;;3.85;1.00;;;;;;;;;;5064150;28;20060;-61
2022/02/25 00:16:46;;;;;;;8.90;1.95;;;;;;;;;;5055933;28;20036;-61
2022/02/25 00:19:12;;;;;;;15.63;1.60;;;;;;;;;;5064693;28;20037;-61
2022/02/25 00:21:37;;;;;;;8.20;1.20;;;;;;;;;;5060331;28;20047;-62
2022/02/25 00:24:03;;;;;;;6.63;1.13;;;;;;;;;;5063567;28;20059;-61
2022/02/25 00:26:29;;;;;;;9.07;1.30;;;;;;;;;;5062636;28;20036;-62
2022/02/25 00:28:54;;;;;;;5.72;1.73;;;;;;;;;;5061790;28;20075;-62
2022/02/25 00:31:20;;;;;;;6.32;1.13;;;;;;;;;;5064616;28;20043;-62
2022/02/25 00:33:45;;;;;;;10.35;2.08;;;;;;;;;;5060547;28;20043;-63
2022/02/25 00:36:11;;;;;;;8.05;1.38;;;;;;;;;;5063309;28;20412;-62
2022/02/25 00:38:36;;;;;;;11.80;2.63;;;;;;;;;;5063096;28;20493;-62
2022/02/25 00:41:02;;;;;;;5.00;1.25;;;;;;;;;;5058498;28;20025;-62
2022/02/25 00:43:27;;;;;;;7.07;1.05;;;;;;;;;;5057922;28;20036;-61
2022/02/25 00:45:53;;;;;;;14.73;2.00;;;;;;;;;;5058190;28;20118;-61
2022/02/25 00:48:18;;;;;;;6.22;1.98;;;;;;;;;;5061195;28;20078;-61
2022/02/25 00:50:44;;;;;;;15.70;1.77;;;;;;;;;;5060132;28;20039;-62
2022/02/25 00:53:10;;;;;;;18.73;1.77;;;;;;;;;;5062901;28;20036;-61
2022/02/25 00:55:36;;;;;;;12.02;1.48;;;;;;;;;;5057550;28;20659;-60
2022/02/25 00:58:02;;;;;;;10.32;2.05;;;;;;;;;;5061217;28;20037;-61
2022/02/25 01:00:28;;;;;;;7.53;2.05;;;;;;;;;;5055325;28;20093;-62
2022/02/25 01:02:54;;;;;;;3.97;0.90;;;;;;;;;;5060472;28;20017;-61
2022/02/25 01:05:20;;;;;;;15.35;2.28;;;;;;;;;;5059094;28;20036;-62
2022/02/25 01:07:46;;;;;;;14.38;1.92;;;;;;;;;;5054426;28;20036;-61
2022/02/25 01:10:15;;;;;;;8.02;1.83;;;;;;;;;;5060802;28;20029;-63
2022/02/25 01:12:42;;;;;;;7.30;1.13;;;;;;;;;;5060108;28;20025;-61
2022/02/25 01:15:08;;;;;;;6.68;1.75;;;;;;;;;;5062284;28;20115;-63
2022/02/25 01:17:34;;;;;;;16.38;1.65;;;;;;;;;;5060789;28;20561;-62
2022/02/25 01:20:00;;;;;;;3.90;0.88;;;;;;;;;;5062127;28;20032;-60
2022/02/25 01:22:26;;;;;;;10.80;1.88;;;;;;;;;;5064745;28;20288;-62
2022/02/25 01:24:52;;;;;;;7.18;1.23;;;;;;;;;;5078682;28;20277;-60
2022/02/25 01:27:18;;;;;;;10.80;1.35;;;;;;;;;;5063387;28;20485;-61
2022/02/25 01:29:44;;;;;;;11.00;2.53;;;;;;;;;;5060197;28;20049;-62
2022/02/25 01:32:10;;;;;;;15.43;1.10;;;;;;;;;;5061074;28;20242;-61
2022/02/25 01:34:36;;;;;;;10.10;1.98;;;;;;;;;;5062826;28;20025;-63
2022/02/25 01:37:02;;;;;;;11.43;1.10;;;;;;;;;;5061615;28;20043;-62
2022/02/25 01:39:27;;;;;;;2.47;0.85;;;;;;;;;;5066555;28;20475;-61
2022/02/25 01:41:55;;;;;;;10.00;0.95;;;;;;;;;;5054732;28;20036;-61
2022/02/25 01:44:23;;;;;;;6.60;1.00;;;;;;;;;;5059618;28;20406;-61
2022/02/25 01:46:56;;;;;;;16.77;1.25;;;;;;;;;;5058115;28;20115;-61
2022/02/25 01:49:23;;;;;;;10.88;1.98;;;;;;;;;;5060503;28;20044;-63
2022/02/25 01:51:54;;;;;;;10.93;1.50;;;;;;;;;;5055611;28;20032;-61
2022/02/25 01:54:20;;;;;;;10.80;1.88;;;;;;;;;;5064857;28;20394;-61
2022/02/25 01:56:45;;;;;;;6.82;1.23;;;;;;;;;;5059829;28;20097;-61
2022/02/25 01:59:11;;;;;;;11.07;1.27;;;;;;;;;;5057730;28;20081;-60
2022/02/25 02:01:37;;;;;;;9.32;1.63;;;;;;;;;;5055020;28;20029;-60
2022/02/25 02:04:03;;;;;;;15.30;1.85;;;;;;;;;;5053783;28;20074;-62
2022/02/25 02:06:29;;;;;;;7.60;1.77;;;;;;;;;;5058882;28;20064;-62
2022/02/25 02:08:55;;;;;;;14.50;2.15;;;;;;;;;;5057140;28;20051;-62
2022/02/25 02:11:37;;;;;;;11.52;1.38;;;;;;;;;;5057319;28;20129;-60
2022/02/25 02:14:07;;;;;;;10.63;1.90;;;;;;;;;;5054809;28;20158;-62
2022/02/25 02:16:32;;;;;;;7.40;1.38;;;;;;;;;;5060926;28;20024;-64
2022/02/25 02:18:58;;;;;;;10.75;1.65;;;;;;;;;;5058862;28;20021;-62
2022/02/25 02:21:26;;;;;;;5.43;1.60;;;;;;;;;;5058319;28;20395;-62
2022/02/25 02:23:53;;;;;;;9.15;1.58;;;;;;;;;;5060156;28;20044;-62
2022/02/25 02:26:19;;;;;;;15.30;1.27;;;;;;;;;;5059867;28;20517;-61
2022/02/25 02:28:44;;;;;;;2.85;0.60;;;;;;;;;;5056306;28;20156;-62
2022/02/25 02:31:10;;;;;;;3.33;1.02;;;;;;;;;;5054615;28;20487;-64
2022/02/25 02:33:36;;;;;;;10.35;1.60;;;;;;;;;;5060987;28;20592;-61
2022/02/25 02:36:03;;;;;;;10.90;1.13;;;;;;;;;;5058988;28;20029;-61
2022/02/25 02:38:29;;;;;;;20.80;1.80;;;;;;;;;;5063827;28;20029;-61
2022/02/25 02:40:55;;;;;;;8.43;1.27;;;;;;;;;;5063519;28;20475;-61
2022/02/25 02:43:20;;;;;;;8.55;1.70;;;;;;;;;;5057939;28;20025;-61
2022/02/25 02:45:45;;;;;;;12.07;1.27;;;;;;;;;;5059286;28;20032;-61
2022/02/25 02:48:11;;;;;;;10.27;1.60;;;;;;;;;;5055396;28;20600;-62
2022/02/25 02:50:37;;;;;;;7.65;0.93;;;;;;;;;;5057765;28;20033;-62
2022/02/25 02:53:02;;;;;;;7.65;1.45;;;;;;;;;;5061491;28;20025;-63
2022/02/25 02:55:28;;;;;;;7.05;1.77;;;;;;;;;;5058263;28;20495;-61
2022/02/25 02:57:53;;;;;;;8.82;1.88;;;;;;;;;;5062177;28;20025;-61
2022/02/25 03:00:19;;;;;;;11.35;2.00;;;;;;;;;;5057121;28;20127;-61
2022/02/25 03:02:45;;;;;;;8.15;0.93;;;;;;;;;;5064014;28;20560;-61
2022/02/25 03:05:10;;;;;;;16.65;1.65;;;;;;;;;;5061156;28;20361;-61
2022/02/25 03:07:36;;;;;;;11.32;0.95;;;;;;;;;;5078002;28;20086;-61
2022/02/25 03:10:05;;;;;;;8.25;1.60;;;;;;;;;;5065595;28;20077;-62
2022/02/25 03:12:31;;;;;;;4.60;0.80;;;;;;;;;;5063163;28;20136;-63
2022/02/25 03:14:58;;;;;;;11.27;2.20;;;;;;;;;;5065552;28;20091;-61
2022/02/25 03:17:23;;;;;;;8.10;1.17;;;;;;;;;;5065263;28;20028;-63
2022/02/25 03:19:49;;;;;;;16.90;1.92;;;;;;;;;;5061823;28;20480;-64
2022/02/25 03:22:15;;;;;;;5.78;0.85;;;;;;;;;;5065296;28;20036;-65
2022/02/25 03:24:40;;;;;;;6.55;1.45;;;;;;;;;;5062746;28;20035;-63
2022/02/25 03:27:06;;;;;;;4.25;0.70;;;;;;;;;;5074107;28;20044;-62
2022/02/25 03:29:31;;;;;;;10.63;1.17;;;;;;;;;;5063155;28;20051;-62
2022/02/25 03:31:57;;;;;;;8.00;1.33;;;;;;;;;;5062845;28;20406;-63
2022/02/25 03:34:22;;;;;;;2.70;0.52;;;;;;;;;;5061366;28;20035;-63
2022/02/25 03:36:48;;;;;;;6.97;1.42;;;;;;;;;;5077885;28;20163;-62
2022/02/25 03:39:13;;;;;;;15.50;1.85;;;;;;;;;;5065528;28;20048;-64
2022/02/25 03:41:38;;;;;;;6.07;1.08;;;;;;;;;;5061144;28;20043;-62
2022/02/25 03:44:04;;;;;;;6.28;1.13;;;;;;;;;;5058639;28;20068;-61
2022/02/25 03:46:30;;;;;;;4.70;0.90;;;;;;;;;;5062531;28;20033;-62
2022/02/25 03:48:55;;;;;;;13.93;1.60;;;;;;;;;;5064305;28;20201;-62
2022/02/25 03:51:21;;;;;;;7.00;0.85;;;;;;;;;;5061854;28;20040;-62
2022/02/25 03:53:50;;;;;;;6.40;0.93;;;;;;;;;;5061716;28;20032;-62
2022/02/25 03:56:16;;;;;;;12.95;2.03;;;;;;;;;;5056026;28;20399;-62
2022/02/25 03:58:42;;;;;;;14.68;2.00;;;;;;;;;;5057718;28;20036;-61
2022/02/25 04:01:08;;;;;;;8.20;1.25;;;;;;;;;;5060265;28;20274;-65
2022/02/25 04:03:34;;;;;;;10.77;1.70;;;;;;;;;;5064409;28;20033;-60
2022/02/25 04:06:00;;;;;;;9.90;1.70;;;;;;;;;;5062200;28;20085;-61
2022/02/25 04:08:26;;;;;;;9.93;1.48;;;;;;;;;;5060041;28;20085;-62
2022/02/25 04:10:52;;;;;;;17.15;2.00;;;;;;;;;;5059364;28;20494;-62
2022/02/25 04:13:18;;;;;;;7.03;0.82;;;;;;;;;;5062370;28;20040;-61
2022/02/25 04:15:44;;;;;;;12.25;1.67;;;;;;;;;;5057947;28;20028;-61
2022/02/25 04:18:10;;;;;;;10.13;2.28;;;;;;;;;;5055729;28;20517;-62
2022/02/25 04:20:36;;;;;;;8.05;1.42;;;;;;;;;;5061269;28;20086;-62
2022/02/25 04:23:02;;;;;;;5.57;0.98;;;;;;;;;;5057613;28;20119;-62
2022/02/25 04:25:28;;;;;;;7.10;1.50;;;;;;;;;;5057909;28;20135;-64
2022/02/25 04:27:53;;;;;;;10.35;1.40;;;;;;;;;;5063230;28;20072;-61
2022/02/25 04:30:19;;;;;;;5.25;1.02;;;;;;;;;;5061648;28;20105;-62
2022/02/25 04:32:45;;;;;;;6.15;1.20;;;;;;;;;;5059731;28;20032;-62
2022/02/25 04:35:11;;;;;;;6.88;1.05;;;;;;;;;;5056704;28;20133;-62
2022/02/25 04:37:36;;;;;;;4.90;0.93;;;;;;;;;;5059632;28;20135;-63
2022/02/25 04:40:03;;;;;;;10.65;1.25;;;;;;;;;;5064263;28;20025;-62
2022/02/25 04:42:29;;;;;;;13.30;1.42;;;;;;;;;;5058294;28;20025;-60
2022/02/25 04:44:54;;;;;;;24.42;1.80;;;;;;;;;;5057926;28;20034;-62
2022/02/25 04:47:20;;;;;;;13.40;1.10;;;;;;;;;;5054110;28;20400;-63
2022/02/25 04:49:46;;;;;;;10.85;1.05;;;;;;;;;;5064080;28;20031;-62
2022/02/25 04:52:13;;;;;;;14.75;2.05;;;;;;;;;;5059235;28;20124;-62
2022/02/25 04:54:38;;;;;;;11.07;1.88;;;;;;;;;;5058609;28;20064;-62
2022/02/25 04:57:04;;;;;;;15.40;1.48;;;;;;;;;;5058546;28;20457;-62
2022/02/25 04:59:29;;;;;;;18.42;1.67;;;;;;;;;;5056785;28;20040;-61
2022/02/25 05:01:55;;;;;;;17.05;2.03;;;;;;;;;;5059392;28;20031;-62
2022/02/25 05:04:20;;;;;;;16.27;1.35;;;;;;;;;;5061181;28;20028;-64
2022/02/25 05:06:45;;;;;;;12.40;2.50;;;;;;;;;;5061660;28;20044;-63
2022/02/25 05:09:11;;;;;;;8.32;1.35;;;;;;;;;;5057838;28;20111;-62
2022/02/25 05:11:36;;;;;;;10.85;1.77;;;;;;;;;;5054146;28;20487;-61
2022/02/25 05:14:02;;;;;;;19.40;2.33;;;;;;;;;;5058009;28;20021;-62
2022/02/25 05:21:56;;;;;;;18.00;2.28;;;;;;;;;;5060313;28;20027;-61
2022/02/25 05:24:21;;;;;;;11.57;1.75;;;;;;;;;;5054821;28;20040;-61
2022/02/25 05:26:47;;;;;;;22.65;1.73;;;;;;;;;;5060323;28;20494;-62
2022/02/25 05:29:13;;;;;;;12.10;1.45;;;;;;;;;;5059027;28;20048;-61
2022/02/25 05:31:38;;;;;;;12.63;1.73;;;;;;;;;;5054943;28;20471;-63
2022/02/25 05:34:04;;;;;;;22.60;2.28;;;;;;;;;;5061424;28;20060;-61
2022/02/25 05:36:30;;;;;;;8.40;1.30;;;;;;;;;;5055938;28;20041;-62
2022/02/25 05:38:56;;;;;;;17.48;1.73;;;;;;;;;;5056786;28;20043;-65
2022/02/25 05:41:22;;;;;;;21.88;3.13;;;;;;;;;;5061154;28;20032;-62
2022/02/25 05:43:48;;;;;;;21.45;2.80;;;;;;;;;;5058812;28;20376;-62
2022/02/25 05:46:14;;;;;;;25.08;1.70;;;;;;;;;;5060565;28;20039;-62
2022/02/25 05:48:40;;;;;;;12.38;1.70;;;;;;;;;;5063418;28;20032;-62
2022/02/25 05:51:05;;;;;;;12.32;1.83;;;;;;;;;;5055536;28;20033;-60
2022/02/25 05:53:31;;;;;;;20.98;1.85;;;;;;;;;;5056913;28;20458;-62
2022/02/25 05:55:57;;;;;;;11.02;1.35;;;;;;;;;;5058510;28;20033;-62
2022/02/25 05:58:22;;;;;;;8.23;1.58;;;;;;;;;;5067560;28;20483;-62
2022/02/25 06:00:48;;;;;;;12.77;1.95;;;;;;;;;;5057386;28;20502;-62
2022/02/25 06:03:13;;;;;;;16.98;1.95;;;;;;;;;;5059315;28;20058;-62
2022/02/25 06:05:39;;;;;;;20.42;1.88;;;;;;;;;;5054282;28;20093;-62
2022/02/25 06:08:05;;;;;;;21.65;1.92;;;;;;;;;;5052866;28;20116;-63
2022/02/25 06:10:30;;;;;;;18.27;2.28;;;;;;;;;;5060255;28;20047;-62
2022/02/25 06:12:56;;;;;;;9.70;2.42;;;;;;;;;;5054934;28;20041;-60
2022/02/25 06:15:22;;;;;;;8.35;1.90;;;;;;;;;;5054950;28;20432;-64
2022/02/25 06:17:49;;;;;;;15.57;1.77;;;;;;;;;;5054687;28;20127;-62
2022/02/25 06:20:16;;;;;;;11.98;1.20;;;;;;;;;;5059261;28;20024;-62
2022/02/25 06:22:42;;;;;;;22.25;2.03;;;;;;;;;;5061611;28;20033;-63
2022/02/25 06:25:08;;;;;;;10.18;1.48;;;;;;;;;;5059449;28;20091;-64
2022/02/25 06:27:36;;;;;;;17.48;2.40;;;;;;;;;;5058157;28;20040;-62
2022/02/25 06:30:03;;;;;;;15.30;1.77;;;;;;;;;;5053822;28;20057;-62
2022/02/25 06:32:29;;;;;;;15.10;2.20;;;;;;;;;;5063492;28;20045;-62
2022/02/25 06:34:54;;;;;;;11.35;1.70;;;;;;;;;;5058559;28;20036;-64
2022/02/25 06:37:21;;;;;;;11.73;2.13;;;;;;;;;;5062993;28;20085;-63
2022/02/25 06:39:47;;;;;;;14.73;2.03;;;;;;;;;;5061706;28;20116;-62
2022/02/25 06:42:12;;;;;;;12.77;1.80;;;;;;;;;;5062147;28;20144;-63
2022/02/25 06:44:38;;;;;;;21.05;1.88;;;;;;;;;;5060274;28;20029;-62
2022/02/25 06:47:03;;;;;;;15.82;1.63;;;;;;;;;;5058488;28;20408;-62
2022/02/25 06:49:29;;;;;;;14.15;1.42;;;;;;;;;;5062123;28;20520;-61
2022/02/25 06:51:54;;;;;;;16.48;1.80;;;;;;;;;;5057648;28;20040;-61
2022/02/25 06:54:20;;;;;;;20.00;2.40;;;;;;;;;;5058931;28;20071;-61
2022/02/25 06:56:45;;;;;;;19.88;2.08;;;;;;;;;;5057774;28;20044;-62
2022/02/25 06:59:11;;;;;;;11.23;1.83;;;;;;;;;;5056129;28;20031;-62
2022/02/25 07:01:37;;;;;;;18.42;1.55;;;;;;;;;;5056475;28;20028;-62
2022/02/25 07:04:04;;;;;;;16.88;1.90;;;;;;;;;;5056936;28;20111;-62
2022/02/25 07:06:29;;;;;;;19.83;2.35;;;;;;;;;;5056556;28;20043;-61
2022/02/25 07:08:55;;;;;;;18.55;1.73;;;;;;;;;;5054311;28;20493;-61
2022/02/25 07:11:21;;;;;;;9.68;1.40;;;;;;;;;;5055872;28;20332;-61
2022/02/25 07:13:47;;;;;;;14.43;2.03;;;;;;;;;;5065146;28;20038;-61
2022/02/25 07:16:13;;;;;;;21.13;1.20;;;;;;;;;;5059980;28;20486;-61
2022/02/25 07:18:38;;;;;;;9.48;1.17;;;;;;;;;;5063648;28;20050;-61
2022/02/25 07:21:04;;;;;;;12.10;1.30;;;;;;;;;;5062639;28;20045;-61
2022/02/25 07:23:29;;;;;;;23.10;2.15;;;;;;;;;;5056180;28;20061;-61
2022/02/25 07:25:54;;;;;;;11.27;1.33;;;;;;;;;;5059432;28;20115;-61
2022/02/25 07:28:20;;;;;;;18.45;2.13;;;;;;;;;;5055527;28;20524;-60
2022/02/25 07:30:46;;;;;;;16.08;2.05;;;;;;;;;;5061734;28;20497;-65
2022/02/25 07:33:11;;;;;;;8.80;1.20;;;;;;;;;;5056557;28;20491;-63
2022/02/25 07:35:37;;;;;;;22.73;1.70;;;;;;;;;;5056258;28;20108;-61
2022/02/25 07:38:02;;;;;;;12.63;1.35;;;;;;;;;;5058954;28;20043;-61
2022/02/25 07:40:28;;;;;;;12.05;1.48;;;;;;;;;;5057811;28;20070;-61
2022/02/25 07:42:55;;;;;;;15.43;1.67;;;;;;;;;;5055346;28;20040;-61
2022/02/25 07:45:20;;;;;;;21.98;1.63;;;;;;;;;;5057543;28;20107;-61
2022/02/25 07:47:46;;;;;;;19.33;2.95;;;;;;;;;;5055305;28;20128;-62
2022/02/25 07:50:13;;;;;;;20.13;2.33;;;;;;;;;;5057739;28;20081;-61
2022/02/25 07:52:40;;;;;;;15.85;2.20;;;;;;;;;;5057117;28;20041;-62
2022/02/25 07:55:06;;;;;;;19.75;2.42;;;;;;;;;;5060833;28;20020;-61
2022/02/25 07:57:32;;;;;;;15.57;2.45;;;;;;;;;;5057951;28;20066;-62
2022/02/25 08:00:01;;;;;;;19.20;2.17;;;;;;;;;;5061827;28;20049;-62
2022/02/25 08:02:26;;;;;;;22.45;3.65;;;;;;;;;;5056789;28;20068;-62
2022/02/25 08:04:52;;;;;;;15.40;1.42;;;;;;;;;;5054825;28;20124;-62
2022/02/25 08:07:17;;;;;;;10.60;1.55;;;;;;;;;;5062877;28;20542;-62
2022/02/25 08:09:43;;;;;;;10.30;1.52;;;;;;;;;;5056561;28;20071;-62
2022/02/25 08:12:08;;;;;;;18.35;2.08;;;;;;;;;;5066336;28;20090;-62
2022/02/25 08:14:37;;;;;;;7.13;1.60;;;;;;;;;;5063461;28;20036;-62
2022/02/25 08:17:04;;;;;;;12.70;2.30;;;;;;;;;;5061699;28;20025;-62
2022/02/25 08:19:30;;;;;;;15.95;2.90;;;;;;;;;;5062828;28;20048;-62
2022/02/25 08:21:55;;;;;;;12.05;3.35;;;;;;;;;;5051975;28;20028;-62
2022/02/25 08:24:21;;;;;;;20.88;2.97;;;;;;;;;;5059157;28;20123;-62
2022/02/25 08:26:46;;;;;;;17.02;2.42;;;;;;;;;;5057280;28;20036;-62
2022/02/25 08:29:12;;;;;;;14.85;1.60;;;;;;;;;;5052749;28;20098;-61
2022/02/25 08:31:37;;;;;;;17.55;1.88;;;;;;;;;;5053614;28;20074;-61
2022/02/25 08:34:05;;;;;;;9.48;2.30;;;;;;;;;;5053008;28;20510;-61
2022/02/25 08:36:31;;;;;;;15.15;2.22;;;;;;;;;;5057353;28;20452;-60
2022/02/25 08:38:56;;;;;;;20.13;2.72;;;;;;;;;;5048008;28;20135;-62
2022/02/25 08:41:22;;;;;;;16.30;2.13;;;;;;;;;;5052096;28;20384;-59
2022/02/25 08:43:47;;;;;;;17.73;2.20;;;;;;;;;;5060900;28;20064;-58
2022/02/25 08:46:14;;;;;;;12.38;2.00;;;;;;;;;;5053602;28;20085;-60
2022/02/25 08:48:40;;;;;;;26.42;2.83;;;;;;;;;;5048756;28;20036;-60
2022/02/25 08:51:06;;;;;;;22.92;2.97;;;;;;;;;;5055606;28;20400;-62
2022/02/25 08:53:32;;;;;;;14.32;2.90;;;;;;;;;;5066599;28;20496;-61
2022/02/25 08:55:57;;;;;;;23.80;2.60;;;;;;;;;;5070650;28;20028;-63
2022/02/25 08:58:23;;;;;;;20.98;3.10;;;;;;;;;;5061658;28;20043;-65
2022/02/25 09:00:48;;;;;;;17.48;2.28;;;;;;;;;;5054667;28;20041;-65
2022/02/25 09:03:14;;;;;;;13.63;2.85;;;;;;;;;;5058479;28;20399;-64
2022/02/25 09:05:40;;;;;;;18.90;2.72;;;;;;;;;;5066945;28;20041;-65
2022/02/25 09:08:05;;;;;;;22.05;2.55;;;;;;;;;;5055268;28;20719;-65
2022/02/25 09:10:31;;;;;;;21.90;3.17;;;;;;;;;;5058963;28;20620;-64
2022/02/25 09:12:57;;;;;;;24.23;2.17;;;;;;;;;;5059862;28;20040;-64
2022/02/25 09:15:26;;;;;;;18.95;2.10;;;;;;;;;;5063158;28;20078;-64
2022/02/25 09:17:57;;;;;;;11.90;2.47;;;;;;;;;;5055306;28;20029;-65
2022/02/25 09:20:24;;;;;;;24.67;2.50;;;;;;;;;;5060386;28;20036;-65
2022/02/25 09:22:51;;;;;;;13.10;1.77;;;;;;;;;;5055615;28;20282;-65
2022/02/25 09:25:17;;;;;;;23.42;2.75;;;;;;;;;;5061543;28;20036;-65
2022/02/25 09:27:44;;;;;;;15.57;2.38;;;;;;;;;;5061139;28;20114;-64
2022/02/25 09:30:13;;;;;;;15.77;2.83;;;;;;;;;;5054180;28;20043;-66
2022/02/25 09:32:39;;;;;;;26.73;2.63;;;;;;;;;;5062857;28;20033;-66
2022/02/25 09:35:05;;;;;;;26.38;2.80;;;;;;;;;;5062007;28;20031;-66
2022/02/25 09:37:34;;;;;;;25.15;3.03;;;;;;;;;;5060915;28;20107;-66
2022/02/25 09:40:05;;;;;;;16.08;2.50;;;;;;;;;;5056212;28;20032;-66
2022/02/25 09:42:32;;;;;;;19.60;2.45;;;;;;;;;;5070868;28;20106;-65
2022/02/25 09:44:57;;;;;;;23.23;2.63;;;;;;;;;;5061645;28;20032;-66
2022/02/25 09:47:24;;;;;;;21.63;3.67;;;;;;;;;;5055461;28;20032;-65
2022/02/25 09:49:50;;;;;;;19.17;2.85;;;;;;;;;;5062322;28;20499;-66
2022/02/25 09:52:17;;;;;;;20.98;2.30;;;;;;;;;;5058591;28;20040;-65
2022/02/25 09:54:42;;;;;;;22.30;2.88;;;;;;;;;;5060832;28;20098;-66
2022/02/25 09:57:08;;;;;;;17.90;2.38;;;;;;;;;;5062450;28;20028;-66
2022/02/25 09:59:34;;;;;;;16.75;2.70;;;;;;;;;;5060160;28;20039;-66
2022/02/25 10:02:04;;;;;;;22.05;2.20;;;;;;;;;;5056166;28;20025;-66
2022/02/25 10:04:31;;;;;;;11.63;1.90;;;;;;;;;;5059549;28;20059;-66
2022/02/25 10:06:57;;;;;;;25.30;3.20;;;;;;;;;;5061427;28;20074;-65
2022/02/25 10:09:34;;;;;;;13.93;2.10;;;;;;;;;;5060404;28;20036;-65
2022/02/25 10:12:04;;;;;;;21.17;2.63;;;;;;;;;;5058728;28;20028;-65
2022/02/25 10:14:35;;;;;;;13.15;2.40;;;;;;;;;;5060011;28;20138;-64
2022/02/25 10:17:18;;;;;;;14.82;2.30;;;;;;;;;;5061629;28;20483;-65
2022/02/25 10:19:48;;;;;;;21.15;3.17;;;;;;;;;;5058842;28;20082;-64
2022/02/25 10:22:17;;;;;;;24.88;3.42;;;;;;;;;;5059191;28;20105;-64
2022/02/25 10:24:45;;;;;;;23.58;2.80;;;;;;;;;;5058255;28;20024;-64
2022/02/25 10:27:44;;;;;;;18.00;2.58;;;;;;;;;;5054656;28;20036;-64
2022/02/25 10:30:18;;;;;;;17.35;2.70;;;;;;;;;;5052275;28;20052;-64
2022/02/25 10:32:49;;;;;;;24.45;2.72;;;;;;;;;;5056603;28;20056;-64
2022/02/25 10:35:21;;;;;;;18.37;2.50;;;;;;;;;;5057248;28;20057;-64
2022/02/25 10:38:07;;;;;;;15.93;1.80;;;;;;;;;;5061325;28;20576;-64
2022/02/25 10:40:54;;;;;;;23.98;2.40;;;;;;;;;;5059056;28;20027;-64
2022/02/25 10:43:22;;;;;;;22.77;2.53;;;;;;;;;;5058655;28;20033;-66
2022/02/25 10:45:52;;;;;;;15.65;1.98;;;;;;;;;;5055266;28;20114;-65
2022/02/25 10:48:21;;;;;;;23.45;2.70;;;;;;;;;;5064317;28;20025;-62
2022/02/25 10:50:54;;;;;;;14.15;2.80;;;;;;;;;;5061061;28;20028;-64
2022/02/25 10:53:31;;;;;;;20.65;2.78;;;;;;;;;;5058389;28;20029;-64
2022/02/25 10:56:11;;;;;;;17.02;2.00;;;;;;;;;;5058459;28;20040;-64
2022/02/25 10:58:47;;;;;;;16.35;2.08;;;;;;;;;;5063649;28;20522;-63
2022/02/25 11:01:15;;;;;;;30.38;3.17;;;;;;;;;;5052931;28;20070;-64
2022/02/25 11:03:42;;;;;;;17.10;2.17;;;;;;;;;;5071197;28;20024;-64
2022/02/25 11:06:11;;;;;;;20.67;2.55;;;;;;;;;;5062248;28;20105;-66
2022/02/25 11:08:39;;;;;;;13.18;2.30;;;;;;;;;;5069883;28;20093;-62
2022/02/25 11:11:06;;;;;;;21.73;2.42;;;;;;;;;;5066442;28;20036;-64
2022/02/25 11:13:32;;;;;;;13.70;2.33;;;;;;;;;;5064067;28;20064;-64
2022/02/25 11:15:59;;;;;;;21.85;2.33;;;;;;;;;;5067170;28;20059;-63
2022/02/25 11:18:25;;;;;;;13.73;2.22;;;;;;;;;;5065630;28;20067;-63
2022/02/25 11:20:53;;;;;;;18.77;2.25;;;;;;;;;;5073258;28;20494;-64
2022/02/25 11:23:20;;;;;;;17.48;2.50;;;;;;;;;;5063987;28;20501;-64
2022/02/25 11:25:46;;;;;;;13.35;2.45;;;;;;;;;;5068563;28;20056;-64
2022/02/25 11:28:13;;;;;;;20.75;2.10;;;;;;;;;;5062040;28;20054;-63
2022/02/25 11:31:00;;;;;;;25.00;2.50;;;;;;;;;;5072005;28;20044;-64
2022/02/25 11:33:27;;;;;;;24.98;2.08;;;;;;;;;;5066108;28;20770;-64
2022/02/25 11:35:54;;;;;;;26.58;3.60;;;;;;;;;;5065063;28;20028;-63
2022/02/25 11:38:55;;;;;;;17.10;2.83;;;;;;;;;;5069432;28;20451;-63
2022/02/25 11:41:22;;;;;;;13.48;2.10;;;;;;;;;;5026880;28;20029;-63
2022/02/25 11:43:57;;;;;;;19.55;3.08;;;;;;;;;;5063470;28;20076;-63
2022/02/25 11:46:36;;;;;;;7.95;1.30;;;;;;;;;;5070349;28;20518;-63
2022/02/25 11:49:07;;;;;;;18.75;1.95;;;;;;;;;;5061191;28;20048;-64
2022/02/25 11:51:34;;;;;;;11.10;2.10;;;;;;;;;;5065415;28;20486;-62
2022/02/25 11:54:26;;;;;;;15.82;1.83;;;;;;;;;;5071613;28;20040;-64
2022/02/25 11:57:04;;;;;;;10.57;1.93;;;;;;;;;;5063070;28;20023;-64
2022/02/25 11:59:32;;;;;;;19.08;2.35;;;;;;;;;;5063297;28;20779;-64
2022/02/25 12:02:12;;;;;;;13.52;2.25;;;;;;;;;;5066217;28;20074;-64
2022/02/25 12:04:39;;;;;;;18.10;2.30;;;;;;;;;;5067382;28;20032;-62
2022/02/25 12:07:12;;;;;;;13.57;2.20;;;;;;;;;;5067951;28;20084;-63
2022/02/25 12:09:37;;;;;;;11.23;2.35;;;;;;;;;;5067542;28;20024;-65
2022/02/25 12:12:24;;;;;;;10.18;2.10;;;;;;;;;;5084125;28;20031;-64
2022/02/25 12:14:58;;;;;;;16.42;2.25;;;;;;;;;;5060282;28;20036;-64
2022/02/25 12:17:53;;;;;;;14.95;2.30;;;;;;;;;;5066148;28;20487;-62
2022/02/25 12:20:40;;;;;;;8.77;2.00;;;;;;;;;;5064152;28;20021;-63
2022/02/25 12:23:08;;;;;;;6.55;1.63;;;;;;;;;;5059022;28;20027;-63
2022/02/25 12:25:40;;;;;;;14.07;2.10;;;;;;;;;;5064317;28;20184;-63
2022/02/25 12:28:26;;;;;;;13.85;1.90;;;;;;;;;;5064904;28;20055;-66
2022/02/25 12:31:08;;;;;;;12.35;1.85;;;;;;;;;;5064274;28;20040;-63
2022/02/25 12:33:36;;;;;;;9.73;1.80;;;;;;;;;;5065692;28;20021;-63
2022/02/25 12:36:12;;;;;;;7.18;1.88;;;;;;;;;;5069320;28;20038;-63
2022/02/25 12:38:43;;;;;;;11.63;1.75;;;;;;;;;;5062664;28;20039;-63
2022/02/25 12:41:21;;;;;;;13.90;1.90;;;;;;;;;;5067966;28;20040;-63
2022/02/25 12:44:03;;;;;;;16.42;2.08;;;;;;;;;;5069579;28;20028;-66
2022/02/25 12:46:32;;;;;;;10.27;2.38;;;;;;;;;;5068653;28;20085;-64
2022/02/25 12:48:59;;;;;;;10.27;2.30;;;;;;;;;;5065834;28;20869;-64
2022/02/25 12:51:25;;;;;;;7.53;1.85;;;;;;;;;;5063386;28;20036;-63
2022/02/25 12:53:59;;;;;;;9.48;2.38;;;;;;;;;;5071650;28;20119;-64
2022/02/25 12:56:37;;;;;;;7.97;1.83;;;;;;;;;;5058178;28;20081;-64
2022/02/25 12:59:06;;;;;;;8.18;2.05;;;;;;;;;;5070256;28;20024;-64
2022/02/25 13:01:32;;;;;;;13.73;2.13;;;;;;;;;;5068876;28;20079;-64
2022/02/25 13:04:11;;;;;;;13.63;2.00;;;;;;;;;;5069857;28;20035;-63
2022/02/25 13:06:38;;;;;;;11.18;3.20;;;;;;;;;;5065683;28;20035;-64
2022/02/25 13:09:10;;;;;;;12.93;2.08;;;;;;;;;;5062119;28;20166;-64
2022/02/25 13:11:37;;;;;;;16.10;2.55;;;;;;;;;;5055429;28;20055;-63
2022/02/25 13:14:16;;;;;;;7.97;1.92;;;;;;;;;;5066040;28;20324;-63
2022/02/25 13:16:58;;;;;;;8.60;2.30;;;;;;;;;;5069911;28;20070;-63
2022/02/25 13:19:26;;;;;;;10.27;2.55;;;;;;;;;;5067144;28;20035;-63
2022/02/25 13:22:07;;;;;;;11.93;1.92;;;;;;;;;;5059191;28;20029;-63
2022/02/25 13:24:36;;;;;;;7.35;2.03;;;;;;;;;;5058852;28;20032;-67
2022/02/25 13:27:07;;;;;;;13.90;2.00;;;;;;;;;;5062761;28;20039;-63
2022/02/25 13:29:34;;;;;;;10.40;1.90;;;;;;;;;;5061228;28;20087;-63
2022/02/25 13:32:05;;;;;;;8.70;1.90;;;;;;;;;;5067813;28;20294;-64
2022/02/25 13:34:33;;;;;;;11.95;2.20;;;;;;;;;;5060394;28;20747;-61
2022/02/25 13:36:59;;;;;;;11.43;2.03;;;;;;;;;;5058853;28;20554;-63
2022/02/25 13:39:31;;;;;;;8.23;2.17;;;;;;;;;;5071396;28;20043;-63
2022/02/25 13:41:58;;;;;;;19.90;2.40;;;;;;;;;;5055763;28;20119;-63
2022/02/25 13:44:31;;;;;;;13.07;2.75;;;;;;;;;;5061898;28;20041;-63
2022/02/25 13:52:19;;;;;;;7.97;2.08;;;;;;;;;;5064664;28;20840;-64
2022/02/25 13:52:28;;;;;;;9.70;1.88;;;;;;;;;;5060926;28;20533;-63
2022/02/25 13:55:06;;;;;;;19.58;3.75;;;;;;;;;;5056756;28;20039;-63
2022/02/25 13:57:38;;;;;;;9.55;1.90;;;;;;;;;;5059465;28;20465;-66
2022/02/25 14:00:17;;;;;;;8.73;2.20;;;;;;;;;;5067721;28;20028;-63
2022/02/25 14:02:43;;;;;;;13.55;2.70;;;;;;;;;;5066584;28;20035;-64
2022/02/25 14:05:14;;;;;;;10.38;1.77;;;;;;;;;;5056681;28;20033;-63
2022/02/25 14:07:46;;;;;;;9.45;2.35;;;;;;;;;;5059388;28;20135;-63
2022/02/25 14:10:24;;;;;;;;;;;;;;;;;;5065879;28;20028;-63
2022/02/25 14:12:51;;;;;;;14.05;2.10;;;;;;;;;;5060904;28;19924;-63
2022/02/25 14:15:17;;;;;;;8.13;2.00;;;;;;;;;;5068327;28;20517;-63
2022/02/25 14:17:44;;;;;;;14.27;2.47;;;;;;;;;;5062187;28;20410;-63
2022/02/25 14:20:19;;;;;;;10.57;1.88;;;;;;;;;;5063245;28;20552;-63
2022/02/25 14:22:59;;;;;;;8.50;2.17;;;;;;;;;;5066032;28;20035;-63
2022/02/25 14:25:26;;;;;;;6.93;2.03;;;;;;;;;;5063117;28;20029;-63
2022/02/25 14:28:10;;;;;;;10.90;2.13;;;;;;;;;;5064986;28;20107;-63
2022/02/25 14:30:40;;;;;;;6.32;1.92;;;;;;;;;;5068578;28;20037;-63
2022/02/25 14:33:18;;;;;;;6.10;1.85;;;;;;;;;;5071004;28;20111;-63
2022/02/25 14:36:11;;;;;;;10.68;2.33;;;;;;;;;;5067040;28;20438;-62
2022/02/25 14:38:42;;;;;;;8.48;2.25;;;;;;;;;;5065189;28;20081;-62
2022/02/25 14:41:09;;;;;;;7.32;1.75;;;;;;;;;;5065876;28;20032;-62
2022/02/25 14:43:35;;;;;;;8.70;1.67;;;;;;;;;;5069172;28;20020;-62
2022/02/25 14:46:00;;;;;;;11.75;1.90;;;;;;;;;;5070069;28;20044;-63
2022/02/25 14:48:26;;;;;;;5.65;1.52;;;;;;;;;;5062327;28;20589;-62